Portada
METAR-TAF:

METAR-TAF

Aeroports :

Abha, Aràbia Saudita

latitud: 18-14N, longitud: 042-39E, altitud: 2090 m

Observació

L'informe es va fer fa 20 minuts, a les 19:00 UTC
Vent 10 kt del Sud/Sud-Oest
Temperatura 17°C
Humitat 63%
Pressió 1022 hPa
Visibilitat 10 km o més
sense núvols per sota de 1500 mi sense presència de cumulonimbus.

METAR: OEAB 151900Z 20010KT CAVOK 17/10 Q1022 NOSIG

Hora: 22:20 (19:20 UTC)

Pronòstic

L'informe es va fer fa 8 hores i 20 minuts, a les 11:00 UTC
Pronòstic vàlid del 15 a les 12 UTC al 16 a les 18 UTC
Vent 14 kt del Sud/Sud-Oest
Visibilitat 10 km o més
Núvols disperses a una alçada de 2000 ft
Evolucionant progressivament
l' 15 a les 18 UTC al 15 a les 20 UTC
Vent 15 kt del Sud-Oest

TAF: OEAB 151100Z 1512/1618 20014KT 9999 SCT020 BECMG 1518/1520 22015KT

Observacions i pronòstics meteorològics de més de 4000 aeroports (METAR i TAF).

Les estacions disponibles són els punts grocs i vermells al mapa.

Posi el ratolí al punt desitjat per veure el nom de l'estació.

Feu clic per veure les observacions i els pronòstics meteorològics.

Per canviar el mapa: feu clic els botons verds amb una creu de color negre per apropar; al botó verd amb un guió per allunyar la imatge; o en les fletxes verdes per a mapes adjacents.


METAR-TAF: